Terminal Aerodrome Forecast
Issued by NWS Burlington, VT

Home | Current Version | Previous Version | Text Only | Print | Product List | Glossary On
Versions: 1 2 3 4 5 6 7 8 9 10 11 12 13 14 15
000
FTUS41 KBTV 310539
TAFBTV
TAF
KBTV 310539Z 3106/0106 35012KT P6SM FEW015 BKN035
     FM310900 34012KT P6SM SCT035
     FM311400 35014G20KT P6SM SKC
     FM312100 35007KT P6SM SKC
     FM010200 32005KT P6SM BKN070=

USA.gov is the U.S. government's official web portal to all federal, state and local government web resources and services.